Time;durP1;ratioP1;P1;durP2;ratioP2;P2;SDS_P1;SDS_P2;PMS_P1;PMS_P2;Temp;Humidity;BMP_temperature;BMP_pressure;BME280_temperature;BME280_humidity;BME280_pressure;Samples;Min_cycle;Max_cycle;Signal;HPM_P1;HPM_P2
2023/08/03 00:00:09;;;;;;;2.57;2.37;;;;;;;;;;5074789;28;20455;-79
2023/08/03 00:02:37;;;;;;;2.40;1.60;;;;;;;;;;5075245;28;20472;-78
2023/08/03 00:05:05;;;;;;;8.77;2.43;;;;;;;;;;5074455;28;20448;-78
2023/08/03 00:07:33;;;;;;;6.13;2.40;;;;;;;;;;5075111;28;20449;-77
2023/08/03 00:10:00;;;;;;;5.70;2.60;;;;;;;;;;5074678;28;20491;-77
2023/08/03 00:12:27;;;;;;;4.23;2.40;;;;;;;;;;5074284;28;20471;-78
2023/08/03 00:14:54;;;;;;;3.23;2.23;;;;;;;;;;5075253;28;20467;-78
2023/08/03 00:17:22;;;;;;;2.60;2.07;;;;;;;;;;5073473;28;20442;-77
2023/08/03 00:19:49;;;;;;;3.10;2.40;;;;;;;;;;5074687;28;20448;-76
2023/08/03 00:22:17;;;;;;;8.00;2.90;;;;;;;;;;5073425;28;20464;-77
2023/08/03 00:24:44;;;;;;;3.10;2.00;;;;;;;;;;5074471;28;20454;-78
2023/08/03 00:27:11;;;;;;;5.47;2.87;;;;;;;;;;5074855;28;20462;-78
2023/08/03 00:29:44;;;;;;;4.07;2.53;;;;;;;;;;5078102;28;21010;-77
2023/08/03 00:32:11;;;;;;;3.10;2.80;;;;;;;;;;5077806;28;20826;-77
2023/08/03 00:34:38;;;;;;;5.13;2.50;;;;;;;;;;5077873;28;20457;-77
2023/08/03 00:37:05;;;;;;;7.10;2.97;;;;;;;;;;5077805;28;20792;-78
2023/08/03 00:39:34;;;;;;;4.40;3.30;;;;;;;;;;5077648;28;20451;-77
2023/08/03 00:42:01;;;;;;;4.63;2.80;;;;;;;;;;5076847;28;20467;-77
2023/08/03 00:44:28;;;;;;;6.50;3.10;;;;;;;;;;5076741;28;20936;-77
2023/08/03 00:46:55;;;;;;;4.70;3.17;;;;;;;;;;5076912;28;20528;-78
2023/08/03 00:49:27;;;;;;;5.90;2.80;;;;;;;;;;5076644;28;20483;-77
2023/08/03 00:51:54;;;;;;;3.30;3.00;;;;;;;;;;5076854;28;20464;-77
2023/08/03 00:54:21;;;;;;;3.50;2.47;;;;;;;;;;5076578;28;20452;-77
2023/08/03 00:56:50;;;;;;;5.07;3.30;;;;;;;;;;5076951;28;20455;-78
2023/08/03 00:59:18;;;;;;;2.83;2.20;;;;;;;;;;5077292;28;20455;-79
2023/08/03 01:01:45;;;;;;;3.30;3.00;;;;;;;;;;5077864;28;20473;-78
2023/08/03 01:04:13;;;;;;;4.03;2.40;;;;;;;;;;5077268;28;20443;-77
2023/08/03 01:06:40;;;;;;;9.33;4.83;;;;;;;;;;5078929;28;20778;-79
2023/08/03 01:09:07;;;;;;;4.20;2.70;;;;;;;;;;5079730;28;20494;-79
2023/08/03 01:11:35;;;;;;;4.50;2.53;;;;;;;;;;5080165;28;20479;-78
2023/08/03 01:14:03;;;;;;;8.03;2.10;;;;;;;;;;5079134;28;20454;-78
2023/08/03 01:16:30;;;;;;;5.30;1.90;;;;;;;;;;5077403;28;20454;-77
2023/08/03 01:18:57;;;;;;;12.73;3.10;;;;;;;;;;5077799;28;20986;-78
2023/08/03 01:21:25;;;;;;;8.90;2.47;;;;;;;;;;5078954;28;20470;-79
2023/08/03 01:23:54;;;;;;;4.13;2.63;;;;;;;;;;5079990;28;20428;-78
2023/08/03 01:26:21;;;;;;;4.17;2.40;;;;;;;;;;5079237;28;20505;-78
2023/08/03 01:28:48;;;;;;;9.67;3.07;;;;;;;;;;5078045;28;20478;-78
2023/08/03 01:31:16;;;;;;;5.33;3.07;;;;;;;;;;5078831;28;20459;-78
2023/08/03 01:33:43;;;;;;;4.13;2.70;;;;;;;;;;5080140;28;20491;-78
2023/08/03 01:36:10;;;;;;;5.33;2.97;;;;;;;;;;5079470;28;20939;-78
2023/08/03 01:38:37;;;;;;;4.37;2.60;;;;;;;;;;5080359;28;20440;-78
2023/08/03 01:41:06;;;;;;;6.57;2.57;;;;;;;;;;5080046;28;20467;-78
2023/08/03 01:43:33;;;;;;;6.63;3.03;;;;;;;;;;5080126;28;20812;-78
2023/08/03 01:46:00;;;;;;;6.00;2.97;;;;;;;;;;5078864;28;20444;-79
2023/08/03 01:48:27;;;;;;;5.20;2.60;;;;;;;;;;5076863;28;20804;-78
2023/08/03 01:50:54;;;;;;;5.13;3.20;;;;;;;;;;5077685;28;20496;-78
2023/08/03 01:53:22;;;;;;;3.20;2.57;;;;;;;;;;5076505;28;20793;-77
2023/08/03 01:55:49;;;;;;;4.20;3.20;;;;;;;;;;5077096;28;20448;-78
2023/08/03 01:58:18;;;;;;;6.70;3.07;;;;;;;;;;5076779;28;20543;-78
2023/08/03 02:00:45;;;;;;;3.67;2.10;;;;;;;;;;5076863;28;20428;-78
2023/08/03 02:03:12;;;;;;;4.03;2.50;;;;;;;;;;5077482;28;20455;-77
2023/08/03 02:05:39;;;;;;;7.07;2.70;;;;;;;;;;5076833;28;20458;-77
2023/08/03 02:08:06;;;;;;;6.20;2.80;;;;;;;;;;5076801;28;20808;-78
2023/08/03 02:10:33;;;;;;;6.60;2.67;;;;;;;;;;5076685;28;20488;-77
2023/08/03 02:13:00;;;;;;;5.73;3.00;;;;;;;;;;5076781;28;20927;-77
2023/08/03 02:15:29;;;;;;;6.30;2.90;;;;;;;;;;5076724;28;20444;-77
2023/08/03 02:17:56;;;;;;;5.00;2.77;;;;;;;;;;5077218;28;20783;-77
2023/08/03 02:20:23;;;;;;;3.40;3.10;;;;;;;;;;5076540;28;20448;-78
2023/08/03 02:22:50;;;;;;;6.73;3.37;;;;;;;;;;5076146;28;20498;-78
2023/08/03 02:25:23;;;;;;;8.33;2.83;;;;;;;;;;5076047;28;20467;-78
2023/08/03 02:27:50;;;;;;;7.00;3.07;;;;;;;;;;5077030;28;20436;-78
2023/08/03 02:30:17;;;;;;;3.70;3.07;;;;;;;;;;5076404;28;20487;-77
2023/08/03 02:32:45;;;;;;;6.67;2.73;;;;;;;;;;5076747;28;20464;-77
2023/08/03 02:35:13;;;;;;;6.63;3.40;;;;;;;;;;5077139;28;20443;-77
2023/08/03 02:37:40;;;;;;;8.20;2.43;;;;;;;;;;5077479;28;20454;-77
2023/08/03 02:40:08;;;;;;;6.47;3.80;;;;;;;;;;5077794;28;20463;-78
2023/08/03 02:42:35;;;;;;;3.70;2.73;;;;;;;;;;5078623;28;20468;-78
2023/08/03 02:45:03;;;;;;;27.67;4.30;;;;;;;;;;5078857;28;20451;-77
2023/08/03 02:47:30;;;;;;;6.37;3.20;;;;;;;;;;5077803;28;20504;-77
2023/08/03 02:49:58;;;;;;;9.90;3.23;;;;;;;;;;5077400;28;20498;-77
2023/08/03 02:52:25;;;;;;;4.53;3.17;;;;;;;;;;5076933;28;20837;-77
2023/08/03 02:54:52;;;;;;;7.70;2.90;;;;;;;;;;5077441;28;20448;-78
2023/08/03 02:57:19;;;;;;;5.20;2.33;;;;;;;;;;5077999;28;20946;-77
2023/08/03 02:59:47;;;;;;;7.63;3.77;;;;;;;;;;5077087;28;20463;-78
2023/08/03 03:02:14;;;;;;;4.27;3.60;;;;;;;;;;5078114;28;20838;-78
2023/08/03 03:04:41;;;;;;;7.47;2.53;;;;;;;;;;5077591;28;20456;-78
2023/08/03 03:07:09;;;;;;;6.63;3.60;;;;;;;;;;5078490;28;20969;-78
2023/08/03 03:09:36;;;;;;;4.80;2.63;;;;;;;;;;5076697;28;20494;-78
2023/08/03 03:12:04;;;;;;;4.90;2.73;;;;;;;;;;5077475;28;20852;-78
2023/08/03 03:14:31;;;;;;;3.80;2.87;;;;;;;;;;5077342;28;20456;-77
2023/08/03 03:16:58;;;;;;;5.80;2.60;;;;;;;;;;5077156;28;20459;-77
2023/08/03 03:19:25;;;;;;;7.90;2.97;;;;;;;;;;5076718;28;20817;-77
2023/08/03 03:21:52;;;;;;;5.00;2.70;;;;;;;;;;5076607;28;20475;-77
2023/08/03 03:24:20;;;;;;;4.53;2.80;;;;;;;;;;5076295;28;20451;-77
2023/08/03 03:26:48;;;;;;;8.37;3.70;;;;;;;;;;5076147;28;20460;-77
2023/08/03 03:29:15;;;;;;;8.70;3.77;;;;;;;;;;5077002;28;20455;-77
2023/08/03 03:31:42;;;;;;;7.33;4.47;;;;;;;;;;5076537;28;20829;-77
2023/08/03 03:34:09;;;;;;;7.57;3.40;;;;;;;;;;5076536;28;20448;-77
2023/08/03 03:36:36;;;;;;;5.13;2.40;;;;;;;;;;5076803;28;20791;-77
2023/08/03 03:39:03;;;;;;;4.20;3.03;;;;;;;;;;5076533;28;20525;-77
2023/08/03 03:41:32;;;;;;;7.70;3.20;;;;;;;;;;5077081;28;20977;-77
2023/08/03 03:43:59;;;;;;;6.23;3.40;;;;;;;;;;5076613;28;20928;-77
2023/08/03 03:46:26;;;;;;;5.70;3.57;;;;;;;;;;5076573;28;20436;-77
2023/08/03 03:48:53;;;;;;;4.30;2.87;;;;;;;;;;5076431;28;20450;-77
2023/08/03 03:51:21;;;;;;;5.87;2.93;;;;;;;;;;5076865;28;20488;-77
2023/08/03 03:53:48;;;;;;;12.50;3.07;;;;;;;;;;5077042;28;20870;-78
2023/08/03 03:56:16;;;;;;;2.97;2.63;;;;;;;;;;5076308;28;20954;-77
2023/08/03 03:58:44;;;;;;;5.40;3.13;;;;;;;;;;5076377;28;20460;-77
2023/08/03 04:01:11;;;;;;;6.43;3.00;;;;;;;;;;5076209;28;20459;-77
2023/08/03 04:03:38;;;;;;;7.43;3.87;;;;;;;;;;5075551;28;20455;-77
2023/08/03 04:06:05;;;;;;;8.10;4.17;;;;;;;;;;5076463;28;20447;-77
2023/08/03 04:08:33;;;;;;;10.13;3.40;;;;;;;;;;5076465;28;20455;-78
2023/08/03 04:11:00;;;;;;;7.63;3.00;;;;;;;;;;5076257;28;20541;-77
2023/08/03 04:13:27;;;;;;;10.10;3.60;;;;;;;;;;5076551;28;20447;-77
2023/08/03 04:15:55;;;;;;;4.40;3.00;;;;;;;;;;5076270;28;20443;-77
2023/08/03 04:18:22;;;;;;;6.60;5.63;;;;;;;;;;5076427;28;20448;-77
2023/08/03 04:20:49;;;;;;;11.40;4.20;;;;;;;;;;5075649;28;20443;-77
2023/08/03 04:23:16;;;;;;;6.50;3.70;;;;;;;;;;5076010;28;20880;-77
2023/08/03 04:25:44;;;;;;;4.70;2.87;;;;;;;;;;5074665;28;20500;-77
2023/08/03 04:28:11;;;;;;;9.13;3.57;;;;;;;;;;5074795;28;20454;-77
2023/08/03 04:30:38;;;;;;;7.90;3.33;;;;;;;;;;5074953;28;20491;-77
2023/08/03 04:33:06;;;;;;;10.17;3.93;;;;;;;;;;5074791;28;20975;-77
2023/08/03 04:35:33;;;;;;;10.40;4.73;;;;;;;;;;5074146;28;20456;-78
2023/08/03 04:38:00;;;;;;;5.20;3.73;;;;;;;;;;5074423;28;20452;-78
2023/08/03 04:40:28;;;;;;;7.80;3.80;;;;;;;;;;5074477;28;20531;-77
2023/08/03 04:42:55;;;;;;;6.67;3.17;;;;;;;;;;5074951;28;20474;-77
2023/08/03 04:45:22;;;;;;;12.50;7.10;;;;;;;;;;5074473;28;20818;-78
2023/08/03 04:47:49;;;;;;;10.27;4.20;;;;;;;;;;5074771;28;20434;-77
2023/08/03 04:50:19;;;;;;;9.40;3.73;;;;;;;;;;5074177;28;20487;-77
2023/08/03 04:52:46;;;;;;;6.40;2.90;;;;;;;;;;5074530;28;20835;-77
2023/08/03 04:55:13;;;;;;;8.77;4.87;;;;;;;;;;5074848;28;20456;-78
2023/08/03 04:57:40;;;;;;;4.33;3.03;;;;;;;;;;5074454;28;20954;-77
2023/08/03 05:00:08;;;;;;;5.03;3.23;;;;;;;;;;5074648;28;20466;-77
2023/08/03 05:02:35;;;;;;;6.60;3.47;;;;;;;;;;5073993;28;20471;-77
2023/08/03 05:05:03;;;;;;;14.10;3.50;;;;;;;;;;5074567;28;20447;-77
2023/08/03 05:07:31;;;;;;;9.63;3.40;;;;;;;;;;5074532;28;20456;-77
2023/08/03 05:09:58;;;;;;;6.40;3.00;;;;;;;;;;5074685;28;20470;-78
2023/08/03 05:12:26;;;;;;;6.83;3.73;;;;;;;;;;5074874;28;20472;-78
2023/08/03 05:14:53;;;;;;;5.43;3.23;;;;;;;;;;5076688;28;20448;-78
2023/08/03 05:17:20;;;;;;;10.07;4.83;;;;;;;;;;5079018;28;20486;-78
2023/08/03 05:19:48;;;;;;;4.83;3.13;;;;;;;;;;5078859;28;20439;-78
2023/08/03 05:22:15;;;;;;;7.33;3.67;;;;;;;;;;5078380;28;20491;-78
2023/08/03 05:24:44;;;;;;;9.87;5.43;;;;;;;;;;5077898;28;20456;-77
2023/08/03 05:27:11;;;;;;;8.40;4.97;;;;;;;;;;5078344;28;20532;-77
2023/08/03 05:29:38;;;;;;;4.13;2.63;;;;;;;;;;5078301;28;20456;-77
2023/08/03 05:32:06;;;;;;;6.17;3.40;;;;;;;;;;5077852;28;20859;-78
2023/08/03 05:34:33;;;;;;;4.83;3.00;;;;;;;;;;5077895;28;20454;-78
2023/08/03 05:37:00;;;;;;;6.80;3.50;;;;;;;;;;5078126;28;20448;-78
2023/08/03 05:39:27;;;;;;;4.33;3.00;;;;;;;;;;5078350;28;20550;-78
2023/08/03 05:41:56;;;;;;;4.10;2.40;;;;;;;;;;5077863;28;20464;-78
2023/08/03 05:44:23;;;;;;;4.30;2.33;;;;;;;;;;5077610;28;20813;-78
2023/08/03 05:46:50;;;;;;;5.43;3.63;;;;;;;;;;5077815;28;20494;-79
2023/08/03 05:49:17;;;;;;;6.27;3.03;;;;;;;;;;5076812;28;20454;-78
2023/08/03 05:51:44;;;;;;;6.00;2.90;;;;;;;;;;5076638;28;20537;-78
2023/08/03 05:54:15;;;;;;;4.00;3.00;;;;;;;;;;5077159;28;20447;-79
2023/08/03 05:56:42;;;;;;;5.27;2.80;;;;;;;;;;5077380;28;20606;-78
2023/08/03 05:59:15;;;;;;;4.33;2.57;;;;;;;;;;5076687;28;20455;-78
2023/08/03 06:01:43;;;;;;;4.70;2.60;;;;;;;;;;5077295;28;20464;-78
2023/08/03 06:04:11;;;;;;;6.80;2.80;;;;;;;;;;5076289;28;20455;-78
2023/08/03 06:06:38;;;;;;;3.13;2.40;;;;;;;;;;5076404;28;20811;-78
2023/08/03 06:09:06;;;;;;;6.33;2.77;;;;;;;;;;5076610;28;20459;-78
2023/08/03 06:11:33;;;;;;;5.27;2.70;;;;;;;;;;5076678;28;20498;-78
2023/08/03 06:14:00;;;;;;;5.70;2.73;;;;;;;;;;5076314;28;20456;-78
2023/08/03 06:16:29;;;;;;;6.37;2.90;;;;;;;;;;5076464;28;20454;-78
2023/08/03 06:18:58;;;;;;;5.90;2.60;;;;;;;;;;5076202;28;20436;-78
2023/08/03 06:21:26;;;;;;;7.33;3.33;;;;;;;;;;5077199;28;20583;-78
2023/08/03 06:23:54;;;;;;;4.30;3.10;;;;;;;;;;5076232;28;20482;-78
2023/08/03 06:26:21;;;;;;;3.77;2.43;;;;;;;;;;5076495;28;20452;-78
2023/08/03 06:28:50;;;;;;;4.83;2.27;;;;;;;;;;5077142;28;20451;-79
2023/08/03 06:31:18;;;;;;;9.73;2.30;;;;;;;;;;5076270;28;20488;-78
2023/08/03 06:33:47;;;;;;;4.57;2.10;;;;;;;;;;5077568;28;20447;-78
2023/08/03 06:36:17;;;;;;;4.13;2.20;;;;;;;;;;5077338;28;20458;-78
2023/08/03 06:38:45;;;;;;;4.93;2.50;;;;;;;;;;5077185;28;20857;-79
2023/08/03 06:41:12;;;;;;;8.30;3.37;;;;;;;;;;5077500;28;20476;-79
2023/08/03 06:43:39;;;;;;;6.67;2.47;;;;;;;;;;5078014;28;20928;-79
2023/08/03 06:46:06;;;;;;;4.50;3.13;;;;;;;;;;5077776;28;20455;-79
2023/08/03 06:48:34;;;;;;;4.90;2.57;;;;;;;;;;5077111;28;20936;-78
2023/08/03 06:51:02;;;;;;;5.90;2.60;;;;;;;;;;5077494;28;20845;-79
2023/08/03 06:53:30;;;;;;;8.30;3.10;;;;;;;;;;5077163;28;20447;-79
2023/08/03 06:55:57;;;;;;;5.53;2.70;;;;;;;;;;5076796;28;20774;-78
2023/08/03 06:58:24;;;;;;;7.60;2.67;;;;;;;;;;5077083;28;20510;-79
2023/08/03 07:00:51;;;;;;;4.27;1.90;;;;;;;;;;5076862;28;20428;-79
2023/08/03 07:03:19;;;;;;;3.77;2.60;;;;;;;;;;5077685;28;20928;-79
2023/08/03 07:05:46;;;;;;;4.47;2.80;;;;;;;;;;5077559;28;20454;-79
2023/08/03 07:08:14;;;;;;;5.07;2.00;;;;;;;;;;5077160;28;20450;-78
2023/08/03 07:10:42;;;;;;;8.10;2.93;;;;;;;;;;5076158;28;20865;-78
2023/08/03 07:13:09;;;;;;;4.80;1.87;;;;;;;;;;5075460;28;20452;-80
2023/08/03 07:15:36;;;;;;;2.30;1.70;;;;;;;;;;5073902;28;20444;-78
2023/08/03 07:18:03;;;;;;;3.73;2.20;;;;;;;;;;5074371;28;20932;-78
2023/08/03 07:20:31;;;;;;;7.27;2.20;;;;;;;;;;5073623;28;20467;-78
2023/08/03 07:22:58;;;;;;;3.90;1.90;;;;;;;;;;5073169;28;20509;-77
2023/08/03 07:25:26;;;;;;;4.00;2.33;;;;;;;;;;5074020;28;20458;-79
2023/08/03 07:27:54;;;;;;;3.70;2.40;;;;;;;;;;5076388;28;20474;-79
2023/08/03 07:30:21;;;;;;;6.73;2.73;;;;;;;;;;5076366;28;20448;-80
2023/08/03 07:32:51;;;;;;;3.53;2.17;;;;;;;;;;5076549;28;20495;-82
2023/08/03 07:35:18;;;;;;;3.93;1.90;;;;;;;;;;5076386;28;20516;-81
2023/08/03 07:37:45;;;;;;;4.30;2.50;;;;;;;;;;5076170;28;20950;-81
2023/08/03 07:40:12;;;;;;;5.60;2.53;;;;;;;;;;5075967;28;20439;-79
2023/08/03 07:42:41;;;;;;;4.93;2.67;;;;;;;;;;5074659;28;20456;-79
2023/08/03 07:45:08;;;;;;;5.13;2.57;;;;;;;;;;5074891;28;20511;-81
2023/08/03 07:47:36;;;;;;;4.20;2.20;;;;;;;;;;5074749;28;20444;-78
2023/08/03 07:50:03;;;;;;;9.07;2.97;;;;;;;;;;5074582;28;20456;-80
2023/08/03 07:52:31;;;;;;;9.20;3.47;;;;;;;;;;5074422;28;20498;-80
2023/08/03 07:54:58;;;;;;;6.67;3.10;;;;;;;;;;5074770;28;20452;-80
2023/08/03 07:57:25;;;;;;;7.90;2.50;;;;;;;;;;5074997;28;20879;-81
2023/08/03 07:59:54;;;;;;;7.93;2.20;;;;;;;;;;5074715;28;20466;-81
2023/08/03 08:02:21;;;;;;;7.00;3.03;;;;;;;;;;5074631;28;20468;-79
2023/08/03 08:04:51;;;;;;;5.53;2.90;;;;;;;;;;5074092;28;20442;-79
2023/08/03 08:07:18;;;;;;;5.37;2.57;;;;;;;;;;5073341;28;21058;-78
2023/08/03 08:09:46;;;;;;;5.57;2.50;;;;;;;;;;5072642;28;20948;-79
2023/08/03 08:12:13;;;;;;;4.50;2.43;;;;;;;;;;5073318;28;20491;-78
2023/08/03 08:14:40;;;;;;;3.87;2.43;;;;;;;;;;5074037;28;20463;-78
2023/08/03 08:17:09;;;;;;;6.43;2.60;;;;;;;;;;5073786;28;20467;-80
2023/08/03 08:19:36;;;;;;;5.83;3.40;;;;;;;;;;5073873;28;20456;-80
2023/08/03 08:22:03;;;;;;;3.50;2.67;;;;;;;;;;5072377;28;20479;-79
2023/08/03 08:24:30;;;;;;;3.17;2.47;;;;;;;;;;5072527;28;20448;-78
2023/08/03 08:26:57;;;;;;;4.33;2.40;;;;;;;;;;5072469;28;20451;-79
2023/08/03 08:29:25;;;;;;;5.57;3.00;;;;;;;;;;5072592;28;20892;-80
2023/08/03 08:31:52;;;;;;;4.30;2.50;;;;;;;;;;5072947;28;20873;-77
2023/08/03 08:34:20;;;;;;;6.33;1.90;;;;;;;;;;5072471;28;20538;-79
2023/08/03 08:36:51;;;;;;;2.80;1.90;;;;;;;;;;5072734;28;20462;-79
2023/08/03 08:39:18;;;;;;;8.53;2.10;;;;;;;;;;5072264;28;20436;-79
2023/08/03 08:41:45;;;;;;;5.43;2.60;;;;;;;;;;5073542;28;20464;-79
2023/08/03 08:44:19;;;;;;;3.90;2.40;;;;;;;;;;5074354;28;20460;-81
2023/08/03 08:46:46;;;;;;;3.83;2.20;;;;;;;;;;5072789;28;20443;-79
2023/08/03 08:49:13;;;;;;;3.20;2.10;;;;;;;;;;5072573;28;20950;-80
2023/08/03 08:51:42;;;;;;;2.10;1.50;;;;;;;;;;5076783;28;20516;-77
2023/08/03 08:54:10;;;;;;;6.20;2.23;;;;;;;;;;5077326;28;20539;-77
2023/08/03 08:56:37;;;;;;;1.97;1.70;;;;;;;;;;5077269;28;20448;-79
2023/08/03 08:59:04;;;;;;;3.83;1.90;;;;;;;;;;5076952;28;20455;-76
2023/08/03 09:01:46;;;;;;;6.83;2.03;;;;;;;;;;5075669;28;20480;-75
2023/08/03 09:04:13;;;;;;;4.07;1.97;;;;;;;;;;5076041;28;20525;-79
2023/08/03 09:06:45;;;;;;;3.60;1.77;;;;;;;;;;5077458;28;20441;-78
2023/08/03 09:09:12;;;;;;;4.13;2.23;;;;;;;;;;5078085;28;20458;-78
2023/08/03 09:11:40;;;;;;;5.83;1.93;;;;;;;;;;5077169;28;20496;-78
2023/08/03 09:14:08;;;;;;;3.43;2.60;;;;;;;;;;5077683;28;20444;-78
2023/08/03 09:16:35;;;;;;;5.43;2.20;;;;;;;;;;5077232;28;20517;-78
2023/08/03 09:19:02;;;;;;;5.17;2.10;;;;;;;;;;5077199;28;20824;-77
2023/08/03 09:21:29;;;;;;;6.20;2.30;;;;;;;;;;5076837;28;20474;-78
2023/08/03 09:23:59;;;;;;;3.97;2.57;;;;;;;;;;5077187;28;20454;-78
2023/08/03 09:26:26;;;;;;;4.33;2.73;;;;;;;;;;5077455;28;20551;-78
2023/08/03 09:28:56;;;;;;;3.17;2.03;;;;;;;;;;5077165;28;20460;-78
2023/08/03 09:31:25;;;;;;;9.60;2.90;;;;;;;;;;5077205;28;20495;-79
2023/08/03 09:33:59;;;;;;;7.80;3.40;;;;;;;;;;5077166;28;20447;-78
2023/08/03 09:36:27;;;;;;;4.97;3.13;;;;;;;;;;5077451;28;20465;-78
2023/08/03 09:38:54;;;;;;;7.23;2.80;;;;;;;;;;5077034;28;20455;-78
2023/08/03 09:41:35;;;;;;;8.30;3.37;;;;;;;;;;5076632;28;20474;-78
2023/08/03 09:44:07;;;;;;;4.63;2.80;;;;;;;;;;5076884;28;20882;-78
2023/08/03 09:46:34;;;;;;;7.10;2.50;;;;;;;;;;5077327;28;20848;-77
2023/08/03 09:49:01;;;;;;;8.50;4.00;;;;;;;;;;5076402;28;20899;-78
2023/08/03 09:51:29;;;;;;;9.90;3.70;;;;;;;;;;5076580;28;20499;-78
2023/08/03 09:54:00;;;;;;;3.80;2.63;;;;;;;;;;5076807;28;20803;-78
2023/08/03 09:56:31;;;;;;;5.07;2.30;;;;;;;;;;5076720;28;20507;-77
2023/08/03 09:59:04;;;;;;;8.87;3.37;;;;;;;;;;5076730;28;20470;-78
2023/08/03 10:01:33;;;;;;;4.03;2.50;;;;;;;;;;5076062;28;20517;-77
2023/08/03 10:04:03;;;;;;;3.50;2.40;;;;;;;;;;5076122;28;20452;-78
2023/08/03 10:06:34;;;;;;;3.30;2.63;;;;;;;;;;5076556;28;20444;-78
2023/08/03 10:09:04;;;;;;;5.70;3.20;;;;;;;;;;5076803;28;20436;-78
2023/08/03 10:11:33;;;;;;;6.13;2.70;;;;;;;;;;5076211;28;20480;-78
2023/08/03 10:14:03;;;;;;;3.90;2.70;;;;;;;;;;5076732;28;20869;-78
2023/08/03 10:16:30;;;;;;;4.10;2.40;;;;;;;;;;5076914;28;20452;-78
2023/08/03 10:18:57;;;;;;;5.10;3.30;;;;;;;;;;5076606;28;20455;-78
2023/08/03 10:21:25;;;;;;;5.73;3.50;;;;;;;;;;5076272;28;20456;-77
2023/08/03 10:24:07;;;;;;;5.27;2.33;;;;;;;;;;5074741;28;20928;-77
2023/08/03 10:26:34;;;;;;;3.80;2.27;;;;;;;;;;5075120;28;20446;-78
2023/08/03 10:29:03;;;;;;;7.57;2.20;;;;;;;;;;5075118;28;20447;-77
2023/08/03 10:31:30;;;;;;;4.63;2.43;;;;;;;;;;5074183;28;20467;-76
2023/08/03 10:34:09;;;;;;;6.07;2.90;;;;;;;;;;5072972;28;20455;-77
2023/08/03 10:36:43;;;;;;;6.97;2.40;;;;;;;;;;5073277;28;20826;-77
2023/08/03 10:39:12;;;;;;;8.43;4.00;;;;;;;;;;5073270;28;20884;-77
2023/08/03 10:41:40;;;;;;;4.53;2.83;;;;;;;;;;5073195;28;20478;-76
2023/08/03 10:44:29;;;;;;;8.23;2.83;;;;;;;;;;5072985;28;20455;-77
2023/08/03 10:46:58;;;;;;;4.70;2.33;;;;;;;;;;5073248;28;20795;-77
2023/08/03 10:49:43;;;;;;;8.83;2.20;;;;;;;;;;5072970;28;20452;-77
2023/08/03 10:52:17;;;;;;;4.33;1.70;;;;;;;;;;5072784;28;20499;-75
2023/08/03 10:54:45;;;;;;;5.43;2.53;;;;;;;;;;5072995;28;20553;-76
2023/08/03 10:57:17;;;;;;;3.17;1.83;;;;;;;;;;5072323;28;20443;-75
2023/08/03 10:59:46;;;;;;;6.70;2.07;;;;;;;;;;5072569;28;20483;-75
2023/08/03 11:02:14;;;;;;;4.60;2.47;;;;;;;;;;5072662;28;20464;-76
2023/08/03 11:04:42;;;;;;;2.73;1.97;;;;;;;;;;5072585;28;20444;-76
2023/08/03 11:07:11;;;;;;;3.80;1.90;;;;;;;;;;5072727;28;20470;-75
2023/08/03 11:09:39;;;;;;;3.20;2.00;;;;;;;;;;5072754;28;20940;-76
2023/08/03 11:12:09;;;;;;;4.73;2.27;;;;;;;;;;5072254;28;21055;-76
2023/08/03 11:14:36;;;;;;;4.90;2.30;;;;;;;;;;5072437;28;20455;-76
2023/08/03 11:17:05;;;;;;;4.10;2.00;;;;;;;;;;5072283;28;20452;-76
2023/08/03 11:19:33;;;;;;;4.20;2.30;;;;;;;;;;5072670;28;20814;-76
2023/08/03 11:22:01;;;;;;;3.73;2.03;;;;;;;;;;5072430;28;20878;-76
2023/08/03 11:24:31;;;;;;;3.70;2.10;;;;;;;;;;5072311;28;20452;-76
2023/08/03 11:26:59;;;;;;;6.43;2.33;;;;;;;;;;5072058;28;20459;-76
2023/08/03 11:29:26;;;;;;;5.70;2.30;;;;;;;;;;5072300;28;20810;-76
2023/08/03 11:31:53;;;;;;;4.40;2.40;;;;;;;;;;5071813;28;20463;-76
2023/08/03 11:34:24;;;;;;;4.00;2.93;;;;;;;;;;5072331;28;20448;-76
2023/08/03 11:36:52;;;;;;;5.57;2.77;;;;;;;;;;5072201;28;20508;-75
2023/08/03 11:39:19;;;;;;;5.20;2.30;;;;;;;;;;5072351;28;20447;-76
2023/08/03 11:41:47;;;;;;;7.97;3.67;;;;;;;;;;5072103;28;20483;-78
2023/08/03 11:44:14;;;;;;;4.80;2.87;;;;;;;;;;5072126;28;20618;-77
2023/08/03 11:46:41;;;;;;;4.47;2.23;;;;;;;;;;5072135;28;20855;-75
2023/08/03 11:49:12;;;;;;;4.13;2.00;;;;;;;;;;5072173;28;20483;-77
2023/08/03 11:51:41;;;;;;;6.73;2.17;;;;;;;;;;5072672;28;20835;-78
2023/08/03 11:54:09;;;;;;;3.83;2.33;;;;;;;;;;5072281;28;20878;-78
2023/08/03 11:56:37;;;;;;;8.00;2.90;;;;;;;;;;5072441;28;20448;-78
2023/08/03 11:59:04;;;;;;;7.43;3.20;;;;;;;;;;5072614;28;20499;-78
2023/08/03 12:01:32;;;;;;;5.27;2.30;;;;;;;;;;5072965;28;20484;-78
2023/08/03 12:04:06;;;;;;;6.47;2.67;;;;;;;;;;5073184;28;20448;-78
2023/08/03 12:06:45;;;;;;;9.30;2.30;;;;;;;;;;5073293;28;20451;-79
2023/08/03 12:09:12;;;;;;;7.03;2.90;;;;;;;;;;5073574;28;20886;-78
2023/08/03 12:11:39;;;;;;;2.90;1.83;;;;;;;;;;5073018;28;20467;-79
2023/08/03 12:14:06;;;;;;;7.97;2.77;;;;;;;;;;5073832;28;20578;-78
2023/08/03 12:16:33;;;;;;;4.10;2.87;;;;;;;;;;5072320;28;20904;-78
2023/08/03 12:19:02;;;;;;;9.27;3.13;;;;;;;;;;5072320;28;20458;-77
2023/08/03 12:21:29;;;;;;;4.20;2.40;;;;;;;;;;5072841;28;20479;-78
2023/08/03 12:23:57;;;;;;;3.20;2.13;;;;;;;;;;5074534;28;20448;-78
2023/08/03 12:26:24;;;;;;;4.20;2.87;;;;;;;;;;5077221;28;20818;-79
2023/08/03 12:28:51;;;;;;;3.73;2.80;;;;;;;;;;5077913;28;20447;-78
2023/08/03 12:31:23;;;;;;;4.27;1.97;;;;;;;;;;5077515;28;20921;-78
2023/08/03 12:33:51;;;;;;;5.33;2.07;;;;;;;;;;5077602;28;20478;-78
2023/08/03 12:36:18;;;;;;;8.77;2.47;;;;;;;;;;5077521;28;20452;-77
2023/08/03 12:38:45;;;;;;;2.53;2.20;;;;;;;;;;5077311;28;20864;-78
2023/08/03 12:41:13;;;;;;;4.87;1.90;;;;;;;;;;5076727;28;20463;-78
2023/08/03 12:43:44;;;;;;;3.83;1.90;;;;;;;;;;5076955;28;20448;-78
2023/08/03 12:46:11;;;;;;;6.20;2.20;;;;;;;;;;5077207;28;20435;-78
2023/08/03 12:48:38;;;;;;;7.17;2.10;;;;;;;;;;5077334;28;20782;-78
2023/08/03 12:51:05;;;;;;;3.63;2.20;;;;;;;;;;5077147;28;20486;-78
2023/08/03 12:53:32;;;;;;;4.80;2.00;;;;;;;;;;5077334;28;20857;-79
2023/08/03 12:55:59;;;;;;;4.13;2.23;;;;;;;;;;5077131;28;20458;-78
2023/08/03 12:58:27;;;;;;;4.57;2.20;;;;;;;;;;5076886;28;20814;-78
2023/08/03 13:00:55;;;;;;;5.93;2.17;;;;;;;;;;5077104;28;20465;-78
2023/08/03 13:03:23;;;;;;;3.47;2.10;;;;;;;;;;5077193;28;20849;-78
2023/08/03 13:05:50;;;;;;;3.80;1.90;;;;;;;;;;5077031;28;20443;-78
2023/08/03 13:08:17;;;;;;;5.57;3.17;;;;;;;;;;5076815;28;20443;-78
2023/08/03 13:10:45;;;;;;;3.33;2.10;;;;;;;;;;5076633;28;20442;-78
2023/08/03 13:13:12;;;;;;;4.33;2.00;;;;;;;;;;5076758;28;20533;-78
2023/08/03 13:15:40;;;;;;;5.63;2.17;;;;;;;;;;5076697;28;20462;-78
2023/08/03 13:18:07;;;;;;;5.27;2.37;;;;;;;;;;5076738;28;20455;-78
2023/08/03 13:20:34;;;;;;;3.00;1.90;;;;;;;;;;5076503;28;20448;-78
2023/08/03 13:23:01;;;;;;;4.90;2.70;;;;;;;;;;5076218;28;20475;-78
2023/08/03 13:25:29;;;;;;;2.33;1.60;;;;;;;;;;5076572;28;20455;-78
2023/08/03 13:27:56;;;;;;;3.73;2.10;;;;;;;;;;5076164;28;20474;-78
2023/08/03 13:30:23;;;;;;;2.47;1.57;;;;;;;;;;5076913;28;20588;-78
2023/08/03 13:32:52;;;;;;;4.97;2.90;;;;;;;;;;5076306;28;20497;-78
2023/08/03 13:35:19;;;;;;;3.30;1.93;;;;;;;;;;5075025;28;20509;-78
2023/08/03 13:37:47;;;;;;;7.60;2.17;;;;;;;;;;5075284;28;20448;-77
2023/08/03 13:40:15;;;;;;;4.30;2.63;;;;;;;;;;5076273;28;20631;-77
2023/08/03 13:42:42;;;;;;;2.70;1.83;;;;;;;;;;5074929;28;20468;-76
2023/08/03 13:45:10;;;;;;;10.37;2.43;;;;;;;;;;5074989;28;20482;-79
2023/08/03 13:47:37;;;;;;;7.43;2.33;;;;;;;;;;5074436;28;20451;-79
2023/08/03 13:50:05;;;;;;;4.53;2.30;;;;;;;;;;5073980;28;20827;-77
2023/08/03 13:52:33;;;;;;;6.00;1.97;;;;;;;;;;5074139;28;20475;-76
2023/08/03 13:55:00;;;;;;;3.37;2.27;;;;;;;;;;5073992;28;20509;-77
2023/08/03 13:57:27;;;;;;;5.03;2.17;;;;;;;;;;5073967;28;20472;-76
2023/08/03 13:59:54;;;;;;;3.53;2.03;;;;;;;;;;5073759;28;20459;-76
2023/08/03 14:02:21;;;;;;;7.43;2.63;;;;;;;;;;5073856;28;20955;-76
2023/08/03 14:04:48;;;;;;;5.53;2.00;;;;;;;;;;5074231;28;20447;-78
2023/08/03 14:07:17;;;;;;;4.27;2.07;;;;;;;;;;5077362;28;20444;-79
2023/08/03 14:09:46;;;;;;;4.53;2.33;;;;;;;;;;5075540;28;20456;-79
2023/08/03 14:12:14;;;;;;;2.63;1.67;;;;;;;;;;5074627;28;20968;-77
2023/08/03 14:14:41;;;;;;;4.30;1.80;;;;;;;;;;5073964;28;20487;-77
2023/08/03 14:17:09;;;;;;;6.67;2.27;;;;;;;;;;5073676;28;20458;-77
2023/08/03 14:19:36;;;;;;;4.60;1.57;;;;;;;;;;5074230;28;20463;-75
2023/08/03 14:22:04;;;;;;;5.10;2.80;;;;;;;;;;5073666;28;20479;-76
2023/08/03 14:24:33;;;;;;;2.17;1.60;;;;;;;;;;5073460;28;20551;-76
2023/08/03 14:27:00;;;;;;;6.83;3.67;;;;;;;;;;5073660;28;20447;-75
2023/08/03 14:29:27;;;;;;;7.10;2.40;;;;;;;;;;5073395;28;20450;-76
2023/08/03 14:31:54;;;;;;;4.43;2.20;;;;;;;;;;5073421;28;20965;-75
2023/08/03 14:34:21;;;;;;;3.13;1.90;;;;;;;;;;5074683;28;20518;-76
2023/08/03 14:36:48;;;;;;;5.20;2.40;;;;;;;;;;5073308;28;20452;-76
2023/08/03 14:39:15;;;;;;;7.13;2.07;;;;;;;;;;5073108;28;20455;-76
2023/08/03 14:41:44;;;;;;;4.67;2.23;;;;;;;;;;5073501;28;20467;-77
2023/08/03 14:44:11;;;;;;;5.20;1.83;;;;;;;;;;5073793;28;20454;-78
2023/08/03 14:46:38;;;;;;;8.57;2.80;;;;;;;;;;5073040;28;20452;-76